createdAt,value
2018-09-20T00:02:03.430Z,49.25
2018-09-20T00:04:31.478Z,49.11
2018-09-20T00:06:59.553Z,48.76
2018-09-20T00:09:27.608Z,48.87
2018-09-20T00:11:55.700Z,48.89
2018-09-20T00:14:23.812Z,49.54
2018-09-20T00:16:51.869Z,49.27
2018-09-20T00:19:20.004Z,49.03
2018-09-20T00:21:48.116Z,48.91
2018-09-20T00:24:16.197Z,49.08
2018-09-20T00:26:44.300Z,49.12
2018-09-20T00:29:12.372Z,49.19
2018-09-20T00:31:40.459Z,49.32
2018-09-20T00:34:08.522Z,49.17
2018-09-20T00:36:36.592Z,49.40
2018-09-20T00:39:08.995Z,49.35
2018-09-20T00:41:37.056Z,49.23
2018-09-20T00:44:05.104Z,49.79
2018-09-20T00:46:33.192Z,49.51
2018-09-20T00:49:01.252Z,49.55
2018-09-20T00:51:29.317Z,49.77
2018-09-20T00:53:57.394Z,49.60
2018-09-20T00:56:25.441Z,49.67
2018-09-20T00:58:53.625Z,49.68
2018-09-20T01:01:21.695Z,49.81
2018-09-20T01:03:49.760Z,49.80
2018-09-20T01:06:17.803Z,49.84
2018-09-20T01:08:45.916Z,49.31
2018-09-20T01:11:13.976Z,49.32
2018-09-20T01:13:42.064Z,49.60
2018-09-20T01:16:10.138Z,49.59
2018-09-20T01:18:38.186Z,50.12
2018-09-20T01:21:06.418Z,49.70
2018-09-20T01:23:34.475Z,49.44
2018-09-20T01:26:02.536Z,48.89
2018-09-20T01:28:30.599Z,49.61
2018-09-20T01:30:58.740Z,49.60
2018-09-20T01:33:26.796Z,49.29
2018-09-20T01:35:54.889Z,49.70
2018-09-20T01:38:22.937Z,49.69
2018-09-20T01:40:51.021Z,49.62
2018-09-20T01:43:19.095Z,49.89
2018-09-20T01:45:47.157Z,49.80
2018-09-20T01:48:15.220Z,49.89
2018-09-20T01:50:43.271Z,49.92
2018-09-20T01:53:11.379Z,50.02
2018-09-20T01:55:39.439Z,50.15
2018-09-20T01:58:07.520Z,50.25
2018-09-20T02:00:35.578Z,50.22
2018-09-20T02:03:03.687Z,50.34
2018-09-20T02:05:31.732Z,50.37
2018-09-20T02:07:59.792Z,50.44
2018-09-20T02:10:27.847Z,50.46
2018-09-20T02:12:55.939Z,50.35
2018-09-20T02:15:23.997Z,50.36
2018-09-20T02:17:52.076Z,50.50
2018-09-20T02:20:20.163Z,50.61
2018-09-20T02:22:48.220Z,50.38
2018-09-20T02:25:16.281Z,50.54
2018-09-20T02:27:44.448Z,50.53
2018-09-20T02:30:12.512Z,50.66
2018-09-20T02:32:40.576Z,50.71
2018-09-20T02:35:08.635Z,50.80
2018-09-20T02:37:36.697Z,50.68
2018-09-20T02:40:04.766Z,50.70
2018-09-20T02:42:32.874Z,50.80
2018-09-20T02:45:00.927Z,50.67
2018-09-20T02:47:29.009Z,50.84
2018-09-20T02:49:57.072Z,51.07
2018-09-20T02:52:25.156Z,50.91
2018-09-20T02:54:53.237Z,50.87
2018-09-20T02:57:21.293Z,50.83
2018-09-20T02:59:49.353Z,50.85
2018-09-20T03:02:17.437Z,51.08
2018-09-20T03:04:45.516Z,51.18
2018-09-20T03:07:13.575Z,50.97
2018-09-20T03:09:41.620Z,51.14
2018-09-20T03:12:09.663Z,51.07
2018-09-20T03:14:37.797Z,51.28
2018-09-20T03:17:05.838Z,51.30
2018-09-20T03:19:33.896Z,51.37
2018-09-20T03:22:02.185Z,51.34
2018-09-20T03:24:30.268Z,51.47
2018-09-20T03:26:58.532Z,51.31
2018-09-20T03:29:26.643Z,51.44
2018-09-20T03:31:54.797Z,51.27
2018-09-20T03:34:22.867Z,51.10
2018-09-20T03:36:50.924Z,51.28
2018-09-20T03:39:19.016Z,51.46
2018-09-20T03:41:47.077Z,51.39
2018-09-20T03:44:15.152Z,51.45
2018-09-20T03:46:43.200Z,51.50
2018-09-20T03:49:11.289Z,51.35
2018-09-20T03:51:39.347Z,51.40
2018-09-20T03:54:07.404Z,51.61
2018-09-20T03:56:35.452Z,51.42
2018-09-20T03:59:03.563Z,51.31
2018-09-20T04:01:31.640Z,51.47
2018-09-20T04:03:59.815Z,51.15
2018-09-20T04:06:27.835Z,51.40
2018-09-20T04:08:55.908Z,51.38
2018-09-20T04:11:23.972Z,51.37
2018-09-20T04:13:52.090Z,51.48
2018-09-20T04:16:20.133Z,51.39
2018-09-20T04:18:48.196Z,51.53
2018-09-20T04:21:23.456Z,51.38
2018-09-20T04:23:51.536Z,51.39
2018-09-20T04:26:19.600Z,51.60
2018-09-20T04:28:47.676Z,51.84
2018-09-20T04:31:15.745Z,51.66
2018-09-20T04:33:43.798Z,51.82
2018-09-20T04:36:11.871Z,52.08
2018-09-20T04:38:39.948Z,52.06
2018-09-20T04:41:08.003Z,52.31
2018-09-20T04:43:36.096Z,52.11
2018-09-20T04:46:04.168Z,52.17
2018-09-20T04:48:32.219Z,52.52
2018-09-20T04:51:00.280Z,52.59
2018-09-20T04:53:28.409Z,52.71
2018-09-20T04:55:56.448Z,52.66
2018-09-20T04:58:24.516Z,52.49
2018-09-20T05:00:52.593Z,52.52
2018-09-20T05:03:20.657Z,52.59
2018-09-20T05:05:48.829Z,52.42
2018-09-20T05:08:16.887Z,52.49
2018-09-20T05:10:45.092Z,52.59
2018-09-20T05:13:13.305Z,52.63
2018-09-20T05:15:41.376Z,52.32
2018-09-20T05:18:09.449Z,52.64
2018-09-20T05:20:37.554Z,52.51
2018-09-20T05:23:05.615Z,52.44
2018-09-20T05:25:33.684Z,52.61
2018-09-20T05:28:01.760Z,52.71
2018-09-20T05:30:30.131Z,52.75
2018-09-20T05:32:58.396Z,53.07
2018-09-20T05:35:26.838Z,53.12
2018-09-20T05:37:54.851Z,53.29
2018-09-20T05:40:22.973Z,53.28
2018-09-20T05:42:51.492Z,52.84
2018-09-20T05:45:19.607Z,53.05
2018-09-20T05:47:47.744Z,53.45
2018-09-20T05:50:15.804Z,53.81
2018-09-20T05:52:43.864Z,54.62
2018-09-20T05:55:12.075Z,54.85
2018-09-20T05:57:40.252Z,55.17
2018-09-20T06:00:08.613Z,55.43
2018-09-20T06:02:36.867Z,55.90
2018-09-20T06:05:05.249Z,56.46
2018-09-20T06:07:33.365Z,56.30
2018-09-20T06:10:01.430Z,57.08
2018-09-20T06:12:29.484Z,57.20
2018-09-20T06:14:57.562Z,56.88
2018-09-20T06:17:26.044Z,56.98
2018-09-20T06:19:54.296Z,56.75
2018-09-20T06:22:22.376Z,57.15
2018-09-20T06:24:50.424Z,57.53
2018-09-20T06:27:18.480Z,57.23
2018-09-20T06:29:46.576Z,56.44
2018-09-20T06:32:14.653Z,56.18
2018-09-20T06:34:42.732Z,56.39
2018-09-20T06:37:10.782Z,56.84
2018-09-20T06:39:38.844Z,55.78
2018-09-20T06:42:06.896Z,56.60
2018-09-20T06:44:35.057Z,56.11
2018-09-20T06:47:03.170Z,55.81
2018-09-20T06:49:31.256Z,55.17
2018-09-20T06:51:59.333Z,54.82
2018-09-20T06:54:27.388Z,54.17
2018-09-20T06:56:55.444Z,54.30
2018-09-20T06:59:23.529Z,54.11
2018-09-20T07:01:51.601Z,53.87
2018-09-20T07:04:19.695Z,53.30
2018-09-20T07:06:48.013Z,52.78
2018-09-20T07:09:16.109Z,52.24
2018-09-20T07:11:44.183Z,51.90
2018-09-20T07:14:12.241Z,51.42
2018-09-20T07:16:40.324Z,50.74
2018-09-20T07:19:08.463Z,50.03
2018-09-20T07:21:36.477Z,49.55
2018-09-20T07:24:04.536Z,50.02
2018-09-20T07:26:32.609Z,48.97
2018-09-20T07:29:00.666Z,48.93
2018-09-20T07:31:28.736Z,48.86
2018-09-20T07:33:56.784Z,48.38
2018-09-20T07:36:24.840Z,47.52
2018-09-20T07:38:52.956Z,46.96
2018-09-20T07:41:21.004Z,46.75
2018-09-20T07:43:49.056Z,46.58
2018-09-20T07:46:17.128Z,45.63
2018-09-20T07:48:45.187Z,45.69
2018-09-20T07:51:13.244Z,44.75
2018-09-20T07:53:41.348Z,44.85
2018-09-20T07:56:09.344Z,45.51
2018-09-20T07:58:37.392Z,44.41
2018-09-20T08:01:05.472Z,44.57
2018-09-20T08:03:33.529Z,44.24
2018-09-20T08:06:01.572Z,43.66
2018-09-20T08:08:29.640Z,43.50
2018-09-20T08:10:57.707Z,43.12
2018-09-20T08:13:25.783Z,42.57
2018-09-20T08:15:53.845Z,41.51
2018-09-20T08:18:21.912Z,41.67
2018-09-20T08:20:49.976Z,42.26
2018-09-20T08:23:18.036Z,41.47
2018-09-20T08:25:46.092Z,41.33
2018-09-20T08:28:14.151Z,41.77
2018-09-20T08:30:42.229Z,43.06
2018-09-20T08:33:10.376Z,42.49
2018-09-20T08:35:38.429Z,42.86
2018-09-20T08:38:06.510Z,42.49
2018-09-20T08:40:34.566Z,43.09
2018-09-20T08:43:02.647Z,42.83
2018-09-20T08:45:30.704Z,43.53
2018-09-20T08:47:58.760Z,42.97
2018-09-20T08:50:26.808Z,43.83
2018-09-20T08:52:54.881Z,43.56
2018-09-20T08:55:22.924Z,44.29
2018-09-20T08:57:55.392Z,45.01
2018-09-20T09:00:23.477Z,43.97
2018-09-20T09:02:51.555Z,43.91
2018-09-20T09:05:19.616Z,44.67
2018-09-20T09:07:47.688Z,44.63
2018-09-20T09:10:15.764Z,44.47
2018-09-20T09:12:43.845Z,43.61
2018-09-20T09:15:12.051Z,43.74
2018-09-20T09:17:40.130Z,43.70
2018-09-20T09:20:08.213Z,44.48
2018-09-20T09:22:36.275Z,44.32
2018-09-20T09:25:04.417Z,44.26
2018-09-20T09:27:32.480Z,43.57
2018-09-20T09:30:00.537Z,43.72
2018-09-20T09:32:28.649Z,42.87
2018-09-20T09:34:56.717Z,43.31
2018-09-20T09:37:24.781Z,43.34
2018-09-20T09:39:52.866Z,44.22
2018-09-20T09:42:20.924Z,44.52
2018-09-20T09:44:49.019Z,43.49
2018-09-20T09:47:17.084Z,44.93
2018-09-20T09:49:45.160Z,44.31
2018-09-20T09:52:13.225Z,44.46
2018-09-20T09:54:41.339Z,44.90
2018-09-20T09:57:09.384Z,45.44
2018-09-20T09:59:37.479Z,45.77
2018-09-20T10:02:05.540Z,45.77
2018-09-20T10:04:33.633Z,45.42
2018-09-20T10:07:01.996Z,44.53
2018-09-20T10:09:30.036Z,44.73
2018-09-20T10:11:58.201Z,44.80
2018-09-20T10:14:58.146Z,44.29
2018-09-20T10:17:26.223Z,43.77
2018-09-20T10:19:54.306Z,44.40
2018-09-20T10:22:22.379Z,43.65
2018-09-20T10:24:50.448Z,43.49
2018-09-20T10:27:18.513Z,43.79
2018-09-20T10:29:46.564Z,42.56
2018-09-20T10:32:14.622Z,42.49
2018-09-20T10:34:42.704Z,41.78
2018-09-20T10:37:10.825Z,42.63
2018-09-20T10:39:38.895Z,42.31
2018-09-20T10:42:06.972Z,41.71
2018-09-20T10:44:35.044Z,41.96
2018-09-20T10:47:03.121Z,40.92
2018-09-20T10:49:31.198Z,40.80
2018-09-20T10:51:59.245Z,40.07
2018-09-20T10:54:27.363Z,41.04
2018-09-20T10:56:55.380Z,41.53
2018-09-20T10:59:23.454Z,40.28
2018-09-20T11:01:51.524Z,41.18
2018-09-20T11:04:19.620Z,41.08
2018-09-20T11:06:47.684Z,41.31
2018-09-20T11:09:15.744Z,39.80
2018-09-20T11:11:43.801Z,40.16
2018-09-20T11:14:11.873Z,40.21
2018-09-20T11:16:40.164Z,38.85
2018-09-20T11:19:08.238Z,38.76
2018-09-20T11:21:36.319Z,38.38
2018-09-20T11:24:04.435Z,39.09
2018-09-20T11:26:32.517Z,38.44
2018-09-20T11:29:00.590Z,39.40
2018-09-20T11:31:28.694Z,38.79
2018-09-20T11:33:56.756Z,38.98
2018-09-20T11:36:24.830Z,39.51
2018-09-20T11:38:52.888Z,40.12
2018-09-20T11:41:20.942Z,39.10
2018-09-20T11:43:49.025Z,39.93
2018-09-20T11:46:17.107Z,39.99
2018-09-20T11:48:45.240Z,40.16
2018-09-20T11:51:13.336Z,39.95
2018-09-20T11:53:41.416Z,40.39
2018-09-20T11:56:09.500Z,40.62
2018-09-20T11:58:37.572Z,39.71
2018-09-20T12:01:05.647Z,39.41
2018-09-20T12:03:33.729Z,39.01
2018-09-20T12:06:01.868Z,38.49
2018-09-20T12:08:29.951Z,39.00
2018-09-20T12:10:58.022Z,38.30
2018-09-20T12:13:26.067Z,38.88
2018-09-20T12:15:54.273Z,38.86
2018-09-20T12:18:22.329Z,38.63
2018-09-20T12:20:50.376Z,38.64
2018-09-20T12:23:18.431Z,38.67
2018-09-20T12:25:46.482Z,37.63
2018-09-20T12:28:14.525Z,37.87
2018-09-20T12:30:42.584Z,37.51
2018-09-20T12:33:10.656Z,37.97
2018-09-20T12:35:38.845Z,37.28
2018-09-20T12:38:06.871Z,37.06
2018-09-20T12:40:34.901Z,37.79
2018-09-20T12:43:03.000Z,37.65
2018-09-20T12:45:31.020Z,37.31
2018-09-20T12:47:59.074Z,36.80
2018-09-20T12:50:27.148Z,37.63
2018-09-20T12:52:55.192Z,37.50
2018-09-20T12:55:23.259Z,38.14
2018-09-20T12:57:51.310Z,37.32
2018-09-20T13:00:20.034Z,37.49
2018-09-20T13:02:48.101Z,37.66
2018-09-20T13:05:16.184Z,37.59
2018-09-20T13:07:44.245Z,38.08
2018-09-20T13:10:12.316Z,37.72
2018-09-20T13:12:40.349Z,37.56
2018-09-20T13:15:08.529Z,37.78
2018-09-20T13:17:36.637Z,37.38
2018-09-20T13:20:04.774Z,37.52
2018-09-20T13:22:32.780Z,37.02
2018-09-20T13:25:00.852Z,37.02
2018-09-20T13:27:28.912Z,37.38
2018-09-20T13:29:57.096Z,37.32
2018-09-20T13:32:25.161Z,36.51
2018-09-20T13:34:53.228Z,35.94
2018-09-20T13:37:21.351Z,36.15
2018-09-20T13:39:49.371Z,36.06
2018-09-20T13:42:17.505Z,35.96
2018-09-20T13:44:45.600Z,35.46
2018-09-20T13:47:14.360Z,36.26
2018-09-20T13:49:42.435Z,34.77
2018-09-20T13:52:10.540Z,35.81
2018-09-20T13:54:38.612Z,35.39
2018-09-20T13:57:06.860Z,34.35
2018-09-20T13:59:34.933Z,34.75
2018-09-20T14:02:03.001Z,35.15
2018-09-20T14:04:31.059Z,35.29
2018-09-20T14:06:59.153Z,34.54
2018-09-20T14:09:27.239Z,35.48
2018-09-20T14:11:55.309Z,34.12
2018-09-20T14:14:23.401Z,35.21
2018-09-20T14:16:51.481Z,34.15
2018-09-20T14:19:19.580Z,34.63
2018-09-20T14:21:47.648Z,34.02
2018-09-20T14:24:15.721Z,34.54
2018-09-20T14:26:43.802Z,34.29
2018-09-20T14:29:11.863Z,34.28
2018-09-20T14:31:39.960Z,34.47
2018-09-20T14:34:08.069Z,34.93
2018-09-20T14:36:36.151Z,34.35
2018-09-20T14:39:06.737Z,34.29
2018-09-20T14:41:34.837Z,34.01
2018-09-20T14:44:02.900Z,34.14
2018-09-20T14:46:30.974Z,34.12
2018-09-20T14:48:59.040Z,34.33
2018-09-20T14:51:27.101Z,34.82
2018-09-20T14:53:55.181Z,34.06
2018-09-20T14:56:23.256Z,34.04
2018-09-20T14:58:51.329Z,34.51
2018-09-20T15:01:19.408Z,33.69
2018-09-20T15:03:47.472Z,33.47
2018-09-20T15:06:15.586Z,34.64
2018-09-20T15:08:43.660Z,34.68
2018-09-20T15:11:11.708Z,34.59
2018-09-20T15:13:39.785Z,34.52
2018-09-20T15:16:07.849Z,34.27
2018-09-20T15:18:35.961Z,35.00
2018-09-20T15:21:04.013Z,34.56
2018-09-20T15:23:32.080Z,34.35
2018-09-20T15:26:00.197Z,34.52
2018-09-20T15:28:28.409Z,34.57
2018-09-20T15:30:56.480Z,34.62
2018-09-20T15:33:24.606Z,34.65
2018-09-20T15:35:52.798Z,34.74
2018-09-20T15:38:20.910Z,35.50
2018-09-20T15:40:49.979Z,35.22
2018-09-20T15:43:18.084Z,36.15
2018-09-20T15:45:46.201Z,35.32
2018-09-20T15:48:14.317Z,36.33
2018-09-20T15:50:42.447Z,36.41
2018-09-20T15:53:10.571Z,36.88
2018-09-20T15:55:38.725Z,36.89
2018-09-20T15:58:06.952Z,36.88
2018-09-20T16:00:35.183Z,37.12
2018-09-20T16:03:03.312Z,36.97
2018-09-20T16:05:31.381Z,36.68
2018-09-20T16:07:59.473Z,37.66
2018-09-20T16:10:27.545Z,37.71
2018-09-20T16:12:55.612Z,37.75
2018-09-20T16:15:23.692Z,37.87
2018-09-20T16:17:51.761Z,37.40
2018-09-20T16:20:19.808Z,37.45
2018-09-20T16:22:47.893Z,37.99
2018-09-20T16:25:15.960Z,37.88
2018-09-20T16:27:44.037Z,38.05
2018-09-20T16:30:40.870Z,38.65
2018-09-20T16:34:22.466Z,38.92
2018-09-20T16:37:00.581Z,38.77
2018-09-20T16:39:30.933Z,39.07
2018-09-20T16:42:04.096Z,38.74
2018-09-20T16:44:32.203Z,39.29
2018-09-20T16:47:00.441Z,38.85
2018-09-20T16:49:28.908Z,39.09
2018-09-20T16:51:56.984Z,39.73
2018-09-20T16:54:25.053Z,39.84
2018-09-20T16:56:53.144Z,39.08
2018-09-20T16:59:21.211Z,39.59
2018-09-20T17:01:49.261Z,39.98
2018-09-20T17:04:17.332Z,40.01
2018-09-20T17:06:45.404Z,40.62
2018-09-20T17:09:13.577Z,40.88
2018-09-20T17:11:41.674Z,40.99
2018-09-20T17:14:09.757Z,40.90
2018-09-20T17:16:37.899Z,41.21
2018-09-20T17:19:06.028Z,41.78
2018-09-20T17:21:34.133Z,41.99
2018-09-20T17:24:02.212Z,41.82
2018-09-20T17:26:30.284Z,42.88
2018-09-20T17:28:58.340Z,42.91
2018-09-20T17:31:26.439Z,43.71
2018-09-20T17:33:54.511Z,43.86
2018-09-20T17:36:22.763Z,44.09
2018-09-20T17:38:51.456Z,44.12
2018-09-20T17:41:22.829Z,44.44
2018-09-20T17:43:53.636Z,45.27
2018-09-20T17:46:21.699Z,45.92
2018-09-20T17:48:49.744Z,45.88
2018-09-20T17:51:18.577Z,45.22
2018-09-20T17:53:46.972Z,45.88
2018-09-20T17:56:15.430Z,46.27
2018-09-20T17:58:44.310Z,46.16
2018-09-20T18:01:12.390Z,45.70
2018-09-20T18:03:40.460Z,45.38
2018-09-20T18:06:08.580Z,45.54
2018-09-20T18:08:36.623Z,45.95
2018-09-20T18:11:04.916Z,45.54
2018-09-20T18:13:32.972Z,45.52
2018-09-20T18:16:01.080Z,45.85
2018-09-20T18:18:29.128Z,45.75
2018-09-20T18:20:57.275Z,45.52
2018-09-20T18:23:25.368Z,45.92
2018-09-20T18:25:53.435Z,45.19
2018-09-20T18:28:21.551Z,45.77
2018-09-20T18:30:49.640Z,46.06
2018-09-20T18:33:17.782Z,45.82
2018-09-20T18:35:45.902Z,46.29
2018-09-20T18:38:13.979Z,46.67
2018-09-20T18:40:42.049Z,48.18
2018-09-20T18:43:10.149Z,48.12
2018-09-20T18:45:38.228Z,48.73
2018-09-20T18:48:06.315Z,49.01
2018-09-20T18:50:34.386Z,49.44
2018-09-20T18:53:02.453Z,49.97
2018-09-20T18:55:30.667Z,50.40
2018-09-20T18:57:58.700Z,50.31
2018-09-20T19:00:26.789Z,50.77
2018-09-20T19:02:54.868Z,51.10
2018-09-20T19:05:22.967Z,51.67
2018-09-20T19:07:51.036Z,51.89
2018-09-20T19:10:19.124Z,52.09
2018-09-20T19:12:47.198Z,52.38
2018-09-20T19:15:15.281Z,52.50
2018-09-20T19:17:43.437Z,52.77
2018-09-20T19:20:11.528Z,53.43
2018-09-20T19:22:39.618Z,53.16
2018-09-20T19:25:07.793Z,53.32
2018-09-20T19:27:35.909Z,53.70
2018-09-20T19:30:03.937Z,53.79
2018-09-20T19:32:32.017Z,53.74
2018-09-20T19:35:00.180Z,54.00
2018-09-20T19:37:28.265Z,54.24
2018-09-20T19:39:56.454Z,54.88
2018-09-20T19:42:26.161Z,54.47
2018-09-20T19:44:55.159Z,54.55
2018-09-20T19:47:23.316Z,55.28
2018-09-20T19:49:51.376Z,55.00
2018-09-20T19:52:19.475Z,55.23
2018-09-20T19:54:47.545Z,55.57
2018-09-20T19:57:15.760Z,55.68
2018-09-20T19:59:43.836Z,55.11
2018-09-20T20:02:12.941Z,55.54
2018-09-20T20:04:41.032Z,55.56
2018-09-20T20:07:09.112Z,55.21
2018-09-20T20:09:37.222Z,55.96
2018-09-20T20:12:05.499Z,55.66
2018-09-20T20:14:33.585Z,56.23
2018-09-20T20:17:01.688Z,55.84
2018-09-20T20:19:29.809Z,56.27
2018-09-20T20:21:57.836Z,56.23
2018-09-20T20:24:25.925Z,56.46
2018-09-20T20:26:53.992Z,56.10
2018-09-20T20:29:22.090Z,56.92
2018-09-20T20:31:50.164Z,56.17
2018-09-20T20:34:18.237Z,56.84
2018-09-20T20:36:46.304Z,56.63
2018-09-20T20:39:14.393Z,57.09
2018-09-20T20:41:42.470Z,56.66
2018-09-20T20:44:10.552Z,56.85
2018-09-20T20:46:38.624Z,57.52
2018-09-20T20:49:06.692Z,57.62
2018-09-20T20:51:34.765Z,58.06
2018-09-20T20:54:02.844Z,57.29
2018-09-20T20:56:30.907Z,57.61
2018-09-20T20:58:58.976Z,57.48
2018-09-20T21:01:27.045Z,57.54
2018-09-20T21:03:55.106Z,58.15
2018-09-20T21:06:23.178Z,58.10
2018-09-20T21:08:51.256Z,57.61
2018-09-20T21:11:19.297Z,57.49
2018-09-20T21:13:47.672Z,57.85
2018-09-20T21:16:15.732Z,57.68
2018-09-20T21:18:43.816Z,57.96
2018-09-20T21:21:11.940Z,57.66
2018-09-20T21:23:40.009Z,57.87
2018-09-20T21:26:08.139Z,57.51
2018-09-20T21:28:36.162Z,57.69
2018-09-20T21:31:04.269Z,57.28
2018-09-20T21:33:32.345Z,57.38
2018-09-20T21:36:00.420Z,57.71
2018-09-20T21:38:28.504Z,57.44
2018-09-20T21:40:56.577Z,57.51
2018-09-20T21:43:24.653Z,56.86
2018-09-20T21:45:52.724Z,57.55
2018-09-20T21:48:20.784Z,57.68
2018-09-20T21:50:48.864Z,56.65
2018-09-20T21:53:16.916Z,57.09
2018-09-20T21:55:44.973Z,57.44
2018-09-20T21:58:13.045Z,57.66
2018-09-20T22:00:41.117Z,56.91
2018-09-20T22:03:09.168Z,57.16
2018-09-20T22:05:37.260Z,57.28
2018-09-20T22:08:05.300Z,57.26
2018-09-20T22:10:33.377Z,57.95
2018-09-20T22:13:01.449Z,57.99
2018-09-20T22:15:30.270Z,57.38
2018-09-20T22:17:58.935Z,57.71
2018-09-20T22:20:28.440Z,57.21
2018-09-20T22:22:56.493Z,57.87
2018-09-20T22:25:24.589Z,57.57
2018-09-20T22:27:52.689Z,57.49
2018-09-20T22:30:21.045Z,58.10
2018-09-20T22:32:49.145Z,58.21
2018-09-20T22:35:17.232Z,57.91
2018-09-20T22:37:45.296Z,58.21
2018-09-20T22:40:13.382Z,57.90
2018-09-20T22:42:41.462Z,58.49
2018-09-20T22:45:09.527Z,58.50
2018-09-20T22:47:37.581Z,58.65
2018-09-20T22:50:05.708Z,59.16
2018-09-20T22:52:33.764Z,58.20
2018-09-20T22:55:01.845Z,58.76
2018-09-20T22:57:29.966Z,58.92
2018-09-20T22:59:58.015Z,58.84
2018-09-20T23:02:26.097Z,58.75
2018-09-20T23:04:54.196Z,59.01
2018-09-20T23:07:22.245Z,59.42
2018-09-20T23:09:50.312Z,59.82
2018-09-20T23:12:18.360Z,59.43
2018-09-20T23:14:46.444Z,60.14
2018-09-20T23:17:14.491Z,59.64
2018-09-20T23:19:42.544Z,59.77
2018-09-20T23:22:10.596Z,60.38
2018-09-20T23:24:38.648Z,59.48
2018-09-20T23:27:06.720Z,60.40
2018-09-20T23:29:34.772Z,60.27
2018-09-20T23:32:02.828Z,59.95
2018-09-20T23:34:30.864Z,59.71
2018-09-20T23:36:58.940Z,60.15
2018-09-20T23:39:26.981Z,59.57
2018-09-20T23:41:55.047Z,59.88
2018-09-20T23:44:23.087Z,59.47
2018-09-20T23:46:51.140Z,59.56
2018-09-20T23:49:19.204Z,59.60
2018-09-20T23:51:47.261Z,58.94
2018-09-20T23:54:15.305Z,59.73
2018-09-20T23:56:43.354Z,59.37
2018-09-20T23:59:11.400Z,59.11
